sensor_id;sensor_type;location;lat;lon;timestamp;P1;durP1;ratioP1;P2;durP2;ratioP2
27839;SDS011;15207;42.182;24.308;2022-12-18T00:03:54;30.00;;;19.00;;
27839;SDS011;15207;42.182;24.308;2022-12-18T00:06:20;32.95;;;19.75;;
27839;SDS011;15207;42.182;24.308;2022-12-18T00:08:47;30.50;;;18.90;;
27839;SDS011;15207;42.182;24.308;2022-12-18T00:11:16;30.15;;;19.85;;
27839;SDS011;15207;42.182;24.308;2022-12-18T00:13:43;27.25;;;18.60;;
27839;SDS011;15207;42.182;24.308;2022-12-18T00:16:10;30.25;;;18.80;;
27839;SDS011;15207;42.182;24.308;2022-12-18T00:18:38;29.85;;;18.50;;
27839;SDS011;15207;42.182;24.308;2022-12-18T00:21:05;27.20;;;17.60;;
27839;SDS011;15207;42.182;24.308;2022-12-18T00:23:32;28.85;;;18.10;;
27839;SDS011;15207;42.182;24.308;2022-12-18T00:26:00;27.80;;;19.10;;
27839;SDS011;15207;42.182;24.308;2022-12-18T00:28:26;30.60;;;18.80;;
27839;SDS011;15207;42.182;24.308;2022-12-18T00:30:58;30.17;;;19.02;;
27839;SDS011;15207;42.182;24.308;2022-12-18T00:33:28;34.75;;;20.75;;
27839;SDS011;15207;42.182;24.308;2022-12-18T00:35:59;32.10;;;19.90;;
27839;SDS011;15207;42.182;24.308;2022-12-18T00:38:45;32.50;;;20.10;;
27839;SDS011;15207;42.182;24.308;2022-12-18T00:43:39;31.15;;;21.00;;
27839;SDS011;15207;42.182;24.308;2022-12-18T00:46:05;34.10;;;23.05;;
27839;SDS011;15207;42.182;24.308;2022-12-18T00:50:56;34.92;;;23.98;;
27839;SDS011;15207;42.182;24.308;2022-12-18T00:53:22;39.90;;;24.80;;
27839;SDS011;15207;42.182;24.308;2022-12-18T00:55:47;35.20;;;23.10;;
27839;SDS011;15207;42.182;24.308;2022-12-18T01:00:39;43.05;;;26.50;;
27839;SDS011;15207;42.182;24.308;2022-12-18T01:03:05;39.40;;;26.10;;
27839;SDS011;15207;42.182;24.308;2022-12-18T01:05:31;49.70;;;30.40;;
27839;SDS011;15207;42.182;24.308;2022-12-18T01:07:57;53.80;;;29.40;;
27839;SDS011;15207;42.182;24.308;2022-12-18T01:10:24;44.60;;;28.30;;
27839;SDS011;15207;42.182;24.308;2022-12-18T01:15:16;47.60;;;29.30;;
27839;SDS011;15207;42.182;24.308;2022-12-18T01:17:42;44.60;;;27.80;;
27839;SDS011;15207;42.182;24.308;2022-12-18T01:25:00;43.78;;;27.35;;
27839;SDS011;15207;42.182;24.308;2022-12-18T01:27:26;44.20;;;26.20;;
27839;SDS011;15207;42.182;24.308;2022-12-18T01:32:17;41.65;;;26.75;;
27839;SDS011;15207;42.182;24.308;2022-12-18T01:34:42;39.85;;;25.30;;
27839;SDS011;15207;42.182;24.308;2022-12-18T01:37:08;40.30;;;26.40;;
27839;SDS011;15207;42.182;24.308;2022-12-18T01:39:33;38.30;;;23.70;;
27839;SDS011;15207;42.182;24.308;2022-12-18T01:41:59;35.95;;;23.20;;
27839;SDS011;15207;42.182;24.308;2022-12-18T01:49:40;28.80;;;19.25;;
27839;SDS011;15207;42.182;24.308;2022-12-18T01:52:06;34.35;;;20.05;;
27839;SDS011;15207;42.182;24.308;2022-12-18T01:54:32;26.30;;;17.50;;
27839;SDS011;15207;42.182;24.308;2022-12-18T01:56:58;27.60;;;17.40;;
27839;SDS011;15207;42.182;24.308;2022-12-18T01:59:25;24.90;;;16.90;;
27839;SDS011;15207;42.182;24.308;2022-12-18T02:01:53;24.75;;;15.65;;
27839;SDS011;15207;42.182;24.308;2022-12-18T02:04:22;27.50;;;15.80;;
27839;SDS011;15207;42.182;24.308;2022-12-18T02:06:55;25.20;;;15.70;;
27839;SDS011;15207;42.182;24.308;2022-12-18T02:09:57;21.70;;;15.50;;
27839;SDS011;15207;42.182;24.308;2022-12-18T02:12:34;25.95;;;16.10;;
27839;SDS011;15207;42.182;24.308;2022-12-18T02:18:16;23.10;;;15.75;;
27839;SDS011;15207;42.182;24.308;2022-12-18T02:20:58;24.60;;;15.00;;
27839;SDS011;15207;42.182;24.308;2022-12-18T02:26:55;26.30;;;15.40;;
27839;SDS011;15207;42.182;24.308;2022-12-18T02:29:25;22.80;;;14.85;;
27839;SDS011;15207;42.182;24.308;2022-12-18T02:31:58;19.60;;;14.10;;
27839;SDS011;15207;42.182;24.308;2022-12-18T02:34:30;21.33;;;14.57;;
27839;SDS011;15207;42.182;24.308;2022-12-18T02:39:27;22.80;;;15.47;;
27839;SDS011;15207;42.182;24.308;2022-12-18T02:41:56;23.60;;;14.60;;
27839;SDS011;15207;42.182;24.308;2022-12-18T02:44:22;20.47;;;14.30;;
27839;SDS011;15207;42.182;24.308;2022-12-18T02:46:51;21.40;;;14.38;;
27839;SDS011;15207;42.182;24.308;2022-12-18T03:00:29;22.17;;;13.10;;
27839;SDS011;15207;42.182;24.308;2022-12-18T03:03:16;17.10;;;12.10;;
27839;SDS011;15207;42.182;24.308;2022-12-18T03:05:50;18.50;;;12.70;;
27839;SDS011;15207;42.182;24.308;2022-12-18T03:08:29;18.35;;;11.52;;
27839;SDS011;15207;42.182;24.308;2022-12-18T03:11:01;16.00;;;10.70;;
27839;SDS011;15207;42.182;24.308;2022-12-18T03:16:24;19.50;;;9.90;;
27839;SDS011;15207;42.182;24.308;2022-12-18T03:19:03;13.15;;;8.60;;
27839;SDS011;15207;42.182;24.308;2022-12-18T03:21:38;11.50;;;8.20;;
27839;SDS011;15207;42.182;24.308;2022-12-18T03:24:07;11.50;;;7.60;;
27839;SDS011;15207;42.182;24.308;2022-12-18T03:26:35;12.25;;;7.40;;
27839;SDS011;15207;42.182;24.308;2022-12-18T03:29:07;9.80;;;7.60;;
27839;SDS011;15207;42.182;24.308;2022-12-18T03:34:05;11.00;;;7.20;;
27839;SDS011;15207;42.182;24.308;2022-12-18T03:36:37;9.10;;;6.20;;
27839;SDS011;15207;42.182;24.308;2022-12-18T03:39:03;9.90;;;6.20;;
27839;SDS011;15207;42.182;24.308;2022-12-18T03:55:39;8.90;;;6.10;;
27839;SDS011;15207;42.182;24.308;2022-12-18T03:58:06;12.00;;;6.25;;
27839;SDS011;15207;42.182;24.308;2022-12-18T04:00:33;8.40;;;6.35;;
27839;SDS011;15207;42.182;24.308;2022-12-18T04:05:26;8.25;;;5.80;;
27839;SDS011;15207;42.182;24.308;2022-12-18T04:07:53;9.00;;;6.10;;
27839;SDS011;15207;42.182;24.308;2022-12-18T04:10:21;10.20;;;6.70;;
27839;SDS011;15207;42.182;24.308;2022-12-18T04:12:46;12.10;;;6.25;;
27839;SDS011;15207;42.182;24.308;2022-12-18T04:15:12;9.00;;;6.50;;
27839;SDS011;15207;42.182;24.308;2022-12-18T04:17:38;11.55;;;6.80;;
27839;SDS011;15207;42.182;24.308;2022-12-18T04:20:08;10.52;;;7.15;;
27839;SDS011;15207;42.182;24.308;2022-12-18T04:22:34;11.90;;;7.40;;
27839;SDS011;15207;42.182;24.308;2022-12-18T04:25:00;13.15;;;8.10;;
27839;SDS011;15207;42.182;24.308;2022-12-18T04:27:25;11.70;;;8.40;;
27839;SDS011;15207;42.182;24.308;2022-12-18T04:29:51;13.25;;;8.40;;
27839;SDS011;15207;42.182;24.308;2022-12-18T04:32:17;14.60;;;8.55;;
27839;SDS011;15207;42.182;24.308;2022-12-18T04:34:42;12.75;;;8.85;;
27839;SDS011;15207;42.182;24.308;2022-12-18T04:37:08;13.15;;;8.65;;
27839;SDS011;15207;42.182;24.308;2022-12-18T04:39:33;11.10;;;7.80;;
27839;SDS011;15207;42.182;24.308;2022-12-18T04:41:59;11.55;;;7.70;;
27839;SDS011;15207;42.182;24.308;2022-12-18T04:44:24;12.30;;;7.60;;
27839;SDS011;15207;42.182;24.308;2022-12-18T04:46:50;10.23;;;7.20;;
27839;SDS011;15207;42.182;24.308;2022-12-18T04:49:15;16.40;;;7.10;;
27839;SDS011;15207;42.182;24.308;2022-12-18T04:51:41;11.00;;;7.07;;
27839;SDS011;15207;42.182;24.308;2022-12-18T04:54:06;9.65;;;6.65;;
27839;SDS011;15207;42.182;24.308;2022-12-18T04:56:32;10.30;;;7.40;;
27839;SDS011;15207;42.182;24.308;2022-12-18T05:01:23;12.83;;;7.43;;
27839;SDS011;15207;42.182;24.308;2022-12-18T05:03:48;12.05;;;7.25;;
27839;SDS011;15207;42.182;24.308;2022-12-18T05:06:14;11.30;;;7.35;;
27839;SDS011;15207;42.182;24.308;2022-12-18T05:08:40;12.90;;;7.93;;
27839;SDS011;15207;42.182;24.308;2022-12-18T05:13:32;16.50;;;8.00;;
27839;SDS011;15207;42.182;24.308;2022-12-18T05:15:59;16.60;;;8.60;;
27839;SDS011;15207;42.182;24.308;2022-12-18T05:18:25;14.80;;;8.40;;
27839;SDS011;15207;42.182;24.308;2022-12-18T05:20:51;14.40;;;8.70;;
27839;SDS011;15207;42.182;24.308;2022-12-18T05:23:18;17.60;;;8.65;;
27839;SDS011;15207;42.182;24.308;2022-12-18T05:25:51;12.70;;;7.85;;
27839;SDS011;15207;42.182;24.308;2022-12-18T05:28:18;10.90;;;7.40;;
27839;SDS011;15207;42.182;24.308;2022-12-18T05:30:50;13.30;;;7.50;;
27839;SDS011;15207;42.182;24.308;2022-12-18T05:33:17;11.77;;;7.93;;
27839;SDS011;15207;42.182;24.308;2022-12-18T05:35:43;11.60;;;7.40;;
27839;SDS011;15207;42.182;24.308;2022-12-18T05:38:09;15.70;;;8.40;;
27839;SDS011;15207;42.182;24.308;2022-12-18T05:40:35;11.15;;;7.90;;
27839;SDS011;15207;42.182;24.308;2022-12-18T05:45:27;13.25;;;7.60;;
27839;SDS011;15207;42.182;24.308;2022-12-18T05:47:52;14.60;;;7.70;;
27839;SDS011;15207;42.182;24.308;2022-12-18T05:50:18;10.70;;;7.20;;
27839;SDS011;15207;42.182;24.308;2022-12-18T05:52:43;11.30;;;7.00;;
27839;SDS011;15207;42.182;24.308;2022-12-18T05:55:09;10.90;;;7.00;;
27839;SDS011;15207;42.182;24.308;2022-12-18T05:57:34;10.40;;;7.70;;
27839;SDS011;15207;42.182;24.308;2022-12-18T06:00:00;11.00;;;7.50;;
27839;SDS011;15207;42.182;24.308;2022-12-18T06:02:25;12.55;;;7.65;;
27839;SDS011;15207;42.182;24.308;2022-12-18T06:04:51;12.20;;;7.60;;
27839;SDS011;15207;42.182;24.308;2022-12-18T06:07:16;14.50;;;7.30;;
27839;SDS011;15207;42.182;24.308;2022-12-18T06:09:42;9.20;;;6.80;;
27839;SDS011;15207;42.182;24.308;2022-12-18T06:12:08;13.30;;;6.90;;
27839;SDS011;15207;42.182;24.308;2022-12-18T06:14:33;12.10;;;7.30;;
27839;SDS011;15207;42.182;24.308;2022-12-18T06:16:58;9.63;;;6.60;;
27839;SDS011;15207;42.182;24.308;2022-12-18T06:19:24;10.00;;;7.10;;
27839;SDS011;15207;42.182;24.308;2022-12-18T06:21:50;13.10;;;7.30;;
27839;SDS011;15207;42.182;24.308;2022-12-18T06:24:16;10.87;;;7.40;;
27839;SDS011;15207;42.182;24.308;2022-12-18T06:26:42;9.20;;;6.50;;
27839;SDS011;15207;42.182;24.308;2022-12-18T06:29:07;12.35;;;6.95;;
27839;SDS011;15207;42.182;24.308;2022-12-18T06:31:33;13.75;;;7.30;;
27839;SDS011;15207;42.182;24.308;2022-12-18T06:33:58;12.83;;;7.20;;
27839;SDS011;15207;42.182;24.308;2022-12-18T06:36:24;10.00;;;6.30;;
27839;SDS011;15207;42.182;24.308;2022-12-18T06:38:49;16.93;;;7.23;;
27839;SDS011;15207;42.182;24.308;2022-12-18T06:41:16;10.50;;;6.90;;
27839;SDS011;15207;42.182;24.308;2022-12-18T06:43:43;14.00;;;7.40;;
27839;SDS011;15207;42.182;24.308;2022-12-18T06:46:09;11.70;;;7.30;;
27839;SDS011;15207;42.182;24.308;2022-12-18T06:48:36;11.10;;;6.70;;
27839;SDS011;15207;42.182;24.308;2022-12-18T06:51:01;9.90;;;7.00;;
27839;SDS011;15207;42.182;24.308;2022-12-18T06:55:59;9.90;;;6.80;;
27839;SDS011;15207;42.182;24.308;2022-12-18T06:58:26;11.80;;;7.45;;
27839;SDS011;15207;42.182;24.308;2022-12-18T07:00:52;13.60;;;8.00;;
27839;SDS011;15207;42.182;24.308;2022-12-18T07:03:17;13.90;;;8.10;;
27839;SDS011;15207;42.182;24.308;2022-12-18T07:05:43;17.40;;;8.30;;
27839;SDS011;15207;42.182;24.308;2022-12-18T07:08:08;11.30;;;7.20;;
27839;SDS011;15207;42.182;24.308;2022-12-18T07:10:40;14.10;;;7.50;;
27839;SDS011;15207;42.182;24.308;2022-12-18T07:13:06;11.90;;;6.90;;
27839;SDS011;15207;42.182;24.308;2022-12-18T07:15:31;13.60;;;7.00;;
27839;SDS011;15207;42.182;24.308;2022-12-18T07:17:57;15.25;;;7.55;;
27839;SDS011;15207;42.182;24.308;2022-12-18T07:20:23;13.90;;;7.40;;
27839;SDS011;15207;42.182;24.308;2022-12-18T07:22:48;10.77;;;7.13;;
27839;SDS011;15207;42.182;24.308;2022-12-18T07:25:14;11.90;;;7.10;;
27839;SDS011;15207;42.182;24.308;2022-12-18T07:27:40;14.80;;;7.90;;
27839;SDS011;15207;42.182;24.308;2022-12-18T07:30:05;10.85;;;7.40;;
27839;SDS011;15207;42.182;24.308;2022-12-18T07:32:31;12.70;;;8.00;;
27839;SDS011;15207;42.182;24.308;2022-12-18T07:34:57;12.80;;;8.10;;
27839;SDS011;15207;42.182;24.308;2022-12-18T07:37:22;14.30;;;8.30;;
27839;SDS011;15207;42.182;24.308;2022-12-18T07:39:48;14.50;;;8.20;;
27839;SDS011;15207;42.182;24.308;2022-12-18T07:42:13;15.85;;;8.30;;
27839;SDS011;15207;42.182;24.308;2022-12-18T07:44:57;15.15;;;8.60;;
27839;SDS011;15207;42.182;24.308;2022-12-18T07:47:24;12.25;;;7.85;;
27839;SDS011;15207;42.182;24.308;2022-12-18T07:49:50;13.57;;;8.30;;
27839;SDS011;15207;42.182;24.308;2022-12-18T07:52:16;16.20;;;9.40;;
27839;SDS011;15207;42.182;24.308;2022-12-18T07:54:41;14.30;;;9.20;;
27839;SDS011;15207;42.182;24.308;2022-12-18T07:57:07;14.25;;;9.00;;
27839;SDS011;15207;42.182;24.308;2022-12-18T07:59:33;15.20;;;9.80;;
27839;SDS011;15207;42.182;24.308;2022-12-18T08:01:59;14.35;;;9.35;;
27839;SDS011;15207;42.182;24.308;2022-12-18T08:04:25;16.70;;;9.27;;
27839;SDS011;15207;42.182;24.308;2022-12-18T08:06:50;15.32;;;8.98;;
27839;SDS011;15207;42.182;24.308;2022-12-18T08:09:16;18.15;;;9.10;;
27839;SDS011;15207;42.182;24.308;2022-12-18T08:11:42;15.30;;;8.20;;
27839;SDS011;15207;42.182;24.308;2022-12-18T08:14:07;14.70;;;9.10;;
27839;SDS011;15207;42.182;24.308;2022-12-18T08:16:33;13.68;;;8.98;;
27839;SDS011;15207;42.182;24.308;2022-12-18T08:18:59;12.05;;;8.40;;
27839;SDS011;15207;42.182;24.308;2022-12-18T08:21:26;13.00;;;7.90;;
27839;SDS011;15207;42.182;24.308;2022-12-18T08:23:54;16.00;;;8.40;;
27839;SDS011;15207;42.182;24.308;2022-12-18T08:26:21;13.65;;;7.75;;
27839;SDS011;15207;42.182;24.308;2022-12-18T08:28:48;15.55;;;7.55;;
27839;SDS011;15207;42.182;24.308;2022-12-18T08:31:15;17.60;;;8.00;;
27839;SDS011;15207;42.182;24.308;2022-12-18T08:33:41;14.35;;;7.50;;
27839;SDS011;15207;42.182;24.308;2022-12-18T08:36:07;12.10;;;7.70;;
27839;SDS011;15207;42.182;24.308;2022-12-18T08:38:34;18.40;;;8.50;;
27839;SDS011;15207;42.182;24.308;2022-12-18T08:41:04;15.60;;;8.30;;
27839;SDS011;15207;42.182;24.308;2022-12-18T08:43:31;12.00;;;8.10;;
27839;SDS011;15207;42.182;24.308;2022-12-18T08:46:16;14.80;;;7.80;;
27839;SDS011;15207;42.182;24.308;2022-12-18T08:48:42;15.70;;;9.00;;
27839;SDS011;15207;42.182;24.308;2022-12-18T08:51:08;14.17;;;9.63;;
27839;SDS011;15207;42.182;24.308;2022-12-18T08:53:37;17.17;;;9.55;;
27839;SDS011;15207;42.182;24.308;2022-12-18T08:58:29;19.05;;;9.60;;
27839;SDS011;15207;42.182;24.308;2022-12-18T09:00:59;12.90;;;8.50;;
27839;SDS011;15207;42.182;24.308;2022-12-18T09:03:28;14.70;;;8.80;;
27839;SDS011;15207;42.182;24.308;2022-12-18T09:05:54;15.30;;;8.90;;
27839;SDS011;15207;42.182;24.308;2022-12-18T09:08:19;19.50;;;9.70;;
27839;SDS011;15207;42.182;24.308;2022-12-18T09:10:45;17.80;;;9.40;;
27839;SDS011;15207;42.182;24.308;2022-12-18T09:13:12;15.27;;;9.88;;
27839;SDS011;15207;42.182;24.308;2022-12-18T09:15:41;20.20;;;10.40;;
27839;SDS011;15207;42.182;24.308;2022-12-18T09:20:34;14.95;;;9.20;;
27839;SDS011;15207;42.182;24.308;2022-12-18T09:23:01;15.90;;;8.70;;
27839;SDS011;15207;42.182;24.308;2022-12-18T09:25:28;13.70;;;8.83;;
27839;SDS011;15207;42.182;24.308;2022-12-18T09:27:58;15.20;;;8.60;;
27839;SDS011;15207;42.182;24.308;2022-12-18T09:30:30;12.50;;;8.00;;
27839;SDS011;15207;42.182;24.308;2022-12-18T09:32:58;15.70;;;7.90;;
27839;SDS011;15207;42.182;24.308;2022-12-18T09:35:24;18.50;;;8.07;;
27839;SDS011;15207;42.182;24.308;2022-12-18T09:37:50;12.80;;;7.30;;
27839;SDS011;15207;42.182;24.308;2022-12-18T09:40:19;13.05;;;7.00;;
27839;SDS011;15207;42.182;24.308;2022-12-18T09:42:50;11.70;;;6.30;;
27839;SDS011;15207;42.182;24.308;2022-12-18T09:45:20;11.07;;;6.07;;
27839;SDS011;15207;42.182;24.308;2022-12-18T09:47:47;9.20;;;5.43;;
27839;SDS011;15207;42.182;24.308;2022-12-18T09:52:45;11.70;;;6.75;;
27839;SDS011;15207;42.182;24.308;2022-12-18T10:00:21;11.80;;;6.90;;
27839;SDS011;15207;42.182;24.308;2022-12-18T10:02:48;11.30;;;6.90;;
27839;SDS011;15207;42.182;24.308;2022-12-18T10:05:17;11.80;;;6.60;;
27839;SDS011;15207;42.182;24.308;2022-12-18T10:13:23;8.75;;;6.50;;
27839;SDS011;15207;42.182;24.308;2022-12-18T10:16:15;11.10;;;7.00;;
27839;SDS011;15207;42.182;24.308;2022-12-18T10:21:21;16.15;;;7.90;;
27839;SDS011;15207;42.182;24.308;2022-12-18T10:24:02;10.70;;;7.35;;
27839;SDS011;15207;42.182;24.308;2022-12-18T10:26:38;12.00;;;7.90;;
27839;SDS011;15207;42.182;24.308;2022-12-18T10:31:41;14.60;;;8.40;;
27839;SDS011;15207;42.182;24.308;2022-12-18T10:34:09;14.80;;;8.60;;
27839;SDS011;15207;42.182;24.308;2022-12-18T10:36:38;12.07;;;7.60;;
27839;SDS011;15207;42.182;24.308;2022-12-18T10:44:19;15.60;;;8.20;;
27839;SDS011;15207;42.182;24.308;2022-12-18T10:49:24;14.15;;;7.60;;
27839;SDS011;15207;42.182;24.308;2022-12-18T10:52:06;11.43;;;6.77;;
27839;SDS011;15207;42.182;24.308;2022-12-18T10:55:15;12.40;;;6.97;;
27839;SDS011;15207;42.182;24.308;2022-12-18T10:57:41;10.65;;;6.45;;
27839;SDS011;15207;42.182;24.308;2022-12-18T11:02:55;9.80;;;6.35;;
27839;SDS011;15207;42.182;24.308;2022-12-18T11:07:49;11.57;;;6.63;;
27839;SDS011;15207;42.182;24.308;2022-12-18T11:10:19;15.10;;;7.30;;
27839;SDS011;15207;42.182;24.308;2022-12-18T11:12:46;10.90;;;6.70;;
27839;SDS011;15207;42.182;24.308;2022-12-18T11:15:29;14.20;;;6.40;;
27839;SDS011;15207;42.182;24.308;2022-12-18T11:17:55;12.60;;;6.60;;
27839;SDS011;15207;42.182;24.308;2022-12-18T11:20:31;10.77;;;6.63;;
27839;SDS011;15207;42.182;24.308;2022-12-18T11:23:20;11.30;;;6.85;;
27839;SDS011;15207;42.182;24.308;2022-12-18T11:25:54;10.97;;;6.77;;
27839;SDS011;15207;42.182;24.308;2022-12-18T11:28:38;9.50;;;6.70;;
27839;SDS011;15207;42.182;24.308;2022-12-18T11:31:25;11.60;;;7.30;;
27839;SDS011;15207;42.182;24.308;2022-12-18T11:33:54;14.60;;;6.80;;
27839;SDS011;15207;42.182;24.308;2022-12-18T11:36:32;11.20;;;7.50;;
27839;SDS011;15207;42.182;24.308;2022-12-18T11:39:09;12.15;;;8.00;;
27839;SDS011;15207;42.182;24.308;2022-12-18T11:41:45;10.45;;;7.95;;
27839;SDS011;15207;42.182;24.308;2022-12-18T11:44:36;15.25;;;8.10;;
27839;SDS011;15207;42.182;24.308;2022-12-18T11:47:31;10.85;;;7.75;;
27839;SDS011;15207;42.182;24.308;2022-12-18T11:52:41;13.20;;;9.13;;
27839;SDS011;15207;42.182;24.308;2022-12-18T11:55:16;14.10;;;8.70;;
27839;SDS011;15207;42.182;24.308;2022-12-18T11:58:00;12.80;;;7.57;;
27839;SDS011;15207;42.182;24.308;2022-12-18T12:00:40;14.40;;;7.95;;
27839;SDS011;15207;42.182;24.308;2022-12-18T12:21:47;20.70;;;11.50;;
27839;SDS011;15207;42.182;24.308;2022-12-18T12:30:04;17.95;;;10.55;;
27839;SDS011;15207;42.182;24.308;2022-12-18T12:32:43;19.90;;;11.10;;
27839;SDS011;15207;42.182;24.308;2022-12-18T12:38:10;23.90;;;11.95;;
27839;SDS011;15207;42.182;24.308;2022-12-18T12:40:44;22.27;;;12.18;;
27839;SDS011;15207;42.182;24.308;2022-12-18T12:50:59;15.85;;;8.75;;
27839;SDS011;15207;42.182;24.308;2022-12-18T12:53:32;19.00;;;9.40;;
27839;SDS011;15207;42.182;24.308;2022-12-18T12:56:01;15.90;;;9.60;;
27839;SDS011;15207;42.182;24.308;2022-12-18T13:03:55;16.50;;;8.50;;
27839;SDS011;15207;42.182;24.308;2022-12-18T13:06:48;14.30;;;7.80;;
27839;SDS011;15207;42.182;24.308;2022-12-18T13:09:30;15.60;;;9.00;;
27839;SDS011;15207;42.182;24.308;2022-12-18T13:12:01;20.50;;;8.80;;
27839;SDS011;15207;42.182;24.308;2022-12-18T13:14:54;18.40;;;9.40;;
27839;SDS011;15207;42.182;24.308;2022-12-18T13:17:39;16.40;;;9.10;;
27839;SDS011;15207;42.182;24.308;2022-12-18T13:20:06;19.67;;;8.90;;
27839;SDS011;15207;42.182;24.308;2022-12-18T13:22:39;15.67;;;9.47;;
27839;SDS011;15207;42.182;24.308;2022-12-18T13:28:00;17.30;;;9.40;;
27839;SDS011;15207;42.182;24.308;2022-12-18T13:36:00;17.00;;;10.40;;
27839;SDS011;15207;42.182;24.308;2022-12-18T13:41:39;15.30;;;9.20;;
27839;SDS011;15207;42.182;24.308;2022-12-18T13:46:47;18.20;;;9.90;;
27839;SDS011;15207;42.182;24.308;2022-12-18T13:51:50;18.00;;;9.70;;
27839;SDS011;15207;42.182;24.308;2022-12-18T13:54:18;21.05;;;11.10;;
27839;SDS011;15207;42.182;24.308;2022-12-18T13:56:49;17.87;;;10.60;;
27839;SDS011;15207;42.182;24.308;2022-12-18T13:59:25;16.52;;;9.75;;
27839;SDS011;15207;42.182;24.308;2022-12-18T14:06:51;20.02;;;12.00;;
27839;SDS011;15207;42.182;24.308;2022-12-18T14:09:22;21.40;;;13.37;;
27839;SDS011;15207;42.182;24.308;2022-12-18T14:11:50;20.70;;;12.40;;
27839;SDS011;15207;42.182;24.308;2022-12-18T14:14:17;27.55;;;13.20;;
27839;SDS011;15207;42.182;24.308;2022-12-18T14:19:15;21.75;;;13.13;;
27839;SDS011;15207;42.182;24.308;2022-12-18T14:24:16;23.00;;;13.25;;
27839;SDS011;15207;42.182;24.308;2022-12-18T14:26:46;27.20;;;13.90;;
27839;SDS011;15207;42.182;24.308;2022-12-18T14:29:26;23.45;;;12.50;;
27839;SDS011;15207;42.182;24.308;2022-12-18T14:32:07;19.60;;;11.40;;
27839;SDS011;15207;42.182;24.308;2022-12-18T14:55:21;22.60;;;10.95;;
27839;SDS011;15207;42.182;24.308;2022-12-18T15:17:22;19.83;;;12.13;;
27839;SDS011;15207;42.182;24.308;2022-12-18T15:19:53;22.70;;;12.30;;
27839;SDS011;15207;42.182;24.308;2022-12-18T15:22:35;21.70;;;11.30;;
27839;SDS011;15207;42.182;24.308;2022-12-18T15:25:02;17.37;;;10.47;;
27839;SDS011;15207;42.182;24.308;2022-12-18T15:27:47;18.75;;;9.77;;
27839;SDS011;15207;42.182;24.308;2022-12-18T15:30:19;18.63;;;10.30;;
27839;SDS011;15207;42.182;24.308;2022-12-18T15:32:47;18.10;;;9.80;;
27839;SDS011;15207;42.182;24.308;2022-12-18T15:37:44;16.65;;;9.60;;
27839;SDS011;15207;42.182;24.308;2022-12-18T15:40:17;20.48;;;10.65;;
27839;SDS011;15207;42.182;24.308;2022-12-18T15:42:47;18.40;;;10.60;;
27839;SDS011;15207;42.182;24.308;2022-12-18T15:45:32;22.05;;;10.70;;
27839;SDS011;15207;42.182;24.308;2022-12-18T15:47:58;23.65;;;11.10;;
27839;SDS011;15207;42.182;24.308;2022-12-18T15:50:24;21.00;;;11.30;;
27839;SDS011;15207;42.182;24.308;2022-12-18T15:52:51;19.67;;;10.60;;
27839;SDS011;15207;42.182;24.308;2022-12-18T15:55:20;18.40;;;10.60;;
27839;SDS011;15207;42.182;24.308;2022-12-18T15:58:06;19.70;;;11.20;;
27839;SDS011;15207;42.182;24.308;2022-12-18T16:00:34;22.88;;;11.77;;
27839;SDS011;15207;42.182;24.308;2022-12-18T16:03:01;20.00;;;12.00;;
27839;SDS011;15207;42.182;24.308;2022-12-18T16:05:28;20.70;;;11.50;;
27839;SDS011;15207;42.182;24.308;2022-12-18T16:07:54;23.00;;;12.80;;
27839;SDS011;15207;42.182;24.308;2022-12-18T16:10:20;20.60;;;11.70;;
27839;SDS011;15207;42.182;24.308;2022-12-18T16:12:45;32.00;;;13.10;;
27839;SDS011;15207;42.182;24.308;2022-12-18T16:15:12;24.30;;;12.80;;
27839;SDS011;15207;42.182;24.308;2022-12-18T16:20:06;27.40;;;12.80;;
27839;SDS011;15207;42.182;24.308;2022-12-18T16:22:37;23.70;;;12.90;;
27839;SDS011;15207;42.182;24.308;2022-12-18T16:25:02;19.50;;;11.70;;
27839;SDS011;15207;42.182;24.308;2022-12-18T16:27:30;24.60;;;12.00;;
27839;SDS011;15207;42.182;24.308;2022-12-18T16:29:55;22.60;;;12.10;;
27839;SDS011;15207;42.182;24.308;2022-12-18T16:32:21;19.60;;;12.10;;
27839;SDS011;15207;42.182;24.308;2022-12-18T16:34:47;20.60;;;11.70;;
27839;SDS011;15207;42.182;24.308;2022-12-18T16:42:06;22.10;;;12.60;;
27839;SDS011;15207;42.182;24.308;2022-12-18T16:44:37;18.95;;;11.95;;
27839;SDS011;15207;42.182;24.308;2022-12-18T16:47:03;22.75;;;13.10;;
27839;SDS011;15207;42.182;24.308;2022-12-18T16:49:28;28.13;;;12.97;;
27839;SDS011;15207;42.182;24.308;2022-12-18T16:51:54;23.20;;;12.55;;
27839;SDS011;15207;42.182;24.308;2022-12-18T16:56:46;22.80;;;12.77;;
27839;SDS011;15207;42.182;24.308;2022-12-18T16:59:14;23.40;;;13.10;;
27839;SDS011;15207;42.182;24.308;2022-12-18T17:01:40;22.70;;;13.40;;
27839;SDS011;15207;42.182;24.308;2022-12-18T17:04:07;23.70;;;12.40;;
27839;SDS011;15207;42.182;24.308;2022-12-18T17:06:34;26.35;;;13.30;;
27839;SDS011;15207;42.182;24.308;2022-12-18T17:09:06;23.60;;;13.60;;
27839;SDS011;15207;42.182;24.308;2022-12-18T17:11:34;24.30;;;13.73;;
27839;SDS011;15207;42.182;24.308;2022-12-18T17:14:07;24.50;;;14.00;;
27839;SDS011;15207;42.182;24.308;2022-12-18T17:16:38;26.80;;;14.30;;
27839;SDS011;15207;42.182;24.308;2022-12-18T17:19:03;24.40;;;13.70;;
27839;SDS011;15207;42.182;24.308;2022-12-18T17:21:29;22.40;;;13.50;;
27839;SDS011;15207;42.182;24.308;2022-12-18T17:23:55;32.90;;;13.10;;
27839;SDS011;15207;42.182;24.308;2022-12-18T17:26:24;27.95;;;13.55;;
27839;SDS011;15207;42.182;24.308;2022-12-18T17:28:50;20.60;;;12.60;;
27839;SDS011;15207;42.182;24.308;2022-12-18T17:31:16;21.90;;;12.60;;
27839;SDS011;15207;42.182;24.308;2022-12-18T17:33:44;23.70;;;12.20;;
27839;SDS011;15207;42.182;24.308;2022-12-18T17:36:10;25.15;;;13.00;;
27839;SDS011;15207;42.182;24.308;2022-12-18T17:38:37;22.73;;;13.47;;
27839;SDS011;15207;42.182;24.308;2022-12-18T17:41:04;21.20;;;12.50;;
27839;SDS011;15207;42.182;24.308;2022-12-18T17:46:02;27.10;;;13.70;;
27839;SDS011;15207;42.182;24.308;2022-12-18T17:48:29;28.00;;;13.70;;
27839;SDS011;15207;42.182;24.308;2022-12-18T17:51:00;19.45;;;12.15;;
27839;SDS011;15207;42.182;24.308;2022-12-18T17:53:30;21.95;;;12.80;;
27839;SDS011;15207;42.182;24.308;2022-12-18T17:58:21;22.70;;;13.00;;
27839;SDS011;15207;42.182;24.308;2022-12-18T18:00:48;23.67;;;12.77;;
27839;SDS011;15207;42.182;24.308;2022-12-18T18:03:14;23.80;;;13.85;;
27839;SDS011;15207;42.182;24.308;2022-12-18T18:05:40;25.40;;;14.10;;
27839;SDS011;15207;42.182;24.308;2022-12-18T18:08:07;22.63;;;13.53;;
27839;SDS011;15207;42.182;24.308;2022-12-18T18:10:36;25.30;;;14.40;;
27839;SDS011;15207;42.182;24.308;2022-12-18T18:13:03;24.30;;;13.00;;
27839;SDS011;15207;42.182;24.308;2022-12-18T18:15:55;27.85;;;14.35;;
27839;SDS011;15207;42.182;24.308;2022-12-18T18:18:21;25.70;;;13.65;;
27839;SDS011;15207;42.182;24.308;2022-12-18T18:20:47;23.85;;;13.60;;
27839;SDS011;15207;42.182;24.308;2022-12-18T18:23:13;25.15;;;13.90;;
27839;SDS011;15207;42.182;24.308;2022-12-18T18:25:39;24.90;;;13.90;;
27839;SDS011;15207;42.182;24.308;2022-12-18T18:28:04;22.40;;;13.37;;